Shorkot Weather



Shorkot's Current Weather

Temprature 20.449o clear sky

clear sky

Rain: 0 %

Min Temprature20.449o
Max Temprature20.449o
Humidity69
Wind Speed2.36 m/h
Sun Rise06:44:49
Sun Set18:05:39
Current Time: 23-Feb-2019 16:01:01
Lat/Lon: 30.83, 72.08




Shorkot's Geo Location




Shorkot's Weather Forecast

Time Overall Temp Min Temp Max Temp Humidity Wind Speed Rain
23-Feb-2019 (Sat)
17:00:00 clear sky 20.020 20.020 20.449 69 2.36 m/h 0 %
20:00:00 clear sky 15.210 15.210 15.534 74 2.32 m/h 0 %
23:00:00 scattered clouds 12.600 12.600 12.815 83 1.27 m/h 0 %
24-Feb-2019 (Sun)
02:00:00 scattered clouds 11.880 11.880 11.985 83 1.71 m/h 0 %
05:00:00 clear sky 11.517 11.517 11.517 83 2.56 m/h 0 %
08:00:00 clear sky 12.578 12.578 12.578 83 2.01 m/h 0 %
11:00:00 clear sky 19.199 19.199 19.199 88 2.26 m/h 0 %
14:00:00 clear sky 21.006 21.006 21.006 80 3.37 m/h 0 %
17:00:00 light rain 20.046 20.046 20.046 68 3.4 m/h 6 %
20:00:00 light rain 15.343 15.343 15.343 79 1.61 m/h 73 %
23:00:00 clear sky 13.561 13.561 13.561 85 2.06 m/h 0 %
25-Feb-2019 (Mon)
02:00:00 light rain 11.455 11.455 11.455 91 1.42 m/h 23 %
05:00:00 light rain 10.052 10.052 10.052 96 3.01 m/h 38 %
08:00:00 light rain 11.220 11.220 11.220 94 3.42 m/h 51 %
11:00:00 light rain 14.922 14.922 14.922 100 2.16 m/h 33 %
14:00:00 broken clouds 16.898 16.898 16.898 97 2.42 m/h 0 %
17:00:00 light rain 16.587 16.587 16.587 83 3.76 m/h 2 %
20:00:00 clear sky 13.673 13.673 13.673 90 2.76 m/h 0 %
23:00:00 broken clouds 11.867 11.867 11.867 93 3.11 m/h 0 %
26-Feb-2019 (Tue)
02:00:00 light rain 11.951 11.951 11.951 95 3.26 m/h 7 %
05:00:00 light rain 11.697 11.697 11.697 94 3.06 m/h 13 %
08:00:00 light rain 11.332 11.332 11.332 96 3.27 m/h 16 %
11:00:00 light rain 13.142 13.142 13.142 98 3.92 m/h 11 %
14:00:00 few clouds 16.121 16.121 16.121 89 4.66 m/h 0 %
17:00:00 scattered clouds 15.814 15.814 15.814 76 3.86 m/h 0 %
20:00:00 scattered clouds 12.861 12.861 12.861 78 2.02 m/h 0 %
23:00:00 clear sky 10.723 10.723 10.723 84 1.12 m/h 0 %
27-Feb-2019 (Wed)
02:00:00 clear sky 9.281 9.281 9.281 88 1.66 m/h 0 %
05:00:00 clear sky 8.169 8.169 8.169 89 1.4 m/h 0 %
08:00:00 clear sky 9.565 9.565 9.565 85 1.32 m/h 0 %
11:00:00 clear sky 16.220 16.220 16.220 94 2.11 m/h 0 %
14:00:00 clear sky 18.111 18.111 18.111 85 2.95 m/h 0 %
17:00:00 clear sky 17.848 17.848 17.848 69 2.86 m/h 0 %
20:00:00 few clouds 13.892 13.892 13.892 68 3.12 m/h 0 %
23:00:00 broken clouds 12.641 12.641 12.641 74 3.92 m/h 0 %
28-Feb-2019 (Thu)
02:00:00 overcast clouds 12.191 12.191 12.191 80 3.71 m/h 0 %
05:00:00 broken clouds 11.763 11.763 11.763 84 3.41 m/h 0 %
08:00:00 broken clouds 12.115 12.115 12.115 84 4.01 m/h 0 %
11:00:00 light rain 15.122 15.122 15.122 87 2.96 m/h 3 %
14:00:00 light rain 16.529 16.529 16.529 85 4.07 m/h 2 %

Famous Cities (60)